METAR AND TAF INFORMATION
METAR FOR EHKD
ADDS - METARS form results

(0044 UTC 21 September 2020)
Data provider http://aviationweather.gov/metar/data/
 
METAR text: EHKD 210025Z AUTO 08010KT 9999 NCD 15/14 Q1019 BLU
Conditions at: EHKD (DE KOOY (NAVY) , NL) observed 0025 UTC 21 September 2020
Temperature: 15.0°C (59°F)
Dewpoint: 14.0°C (57°F) [RH = 94%]
Pressure (altimeter): 30.09 inches Hg (1019.0 mb)
Winds: from the E (80 degrees) at 12 MPH (10 knots; 5.1 m/s)
Visibility: 6 or more miles (10+ km)
Ceiling: at least 12,000 feet AGL
Clouds: sky clear below 12,000 feet AGL
Weather: no significant weather observed at this time

METAR text: EHKD 202355Z AUTO 06010KT 9999 NCD 15/14 Q1019 BLU
Conditions at: EHKD (DE KOOY (NAVY) , NL) observed 2355 UTC 20 September 2020
Temperature: 15.0°C (59°F)
Dewpoint: 14.0°C (57°F) [RH = 94%]
Pressure (altimeter): 30.09 inches Hg (1019.0 mb)
Winds: from the ENE (60 degrees) at 12 MPH (10 knots; 5.1 m/s)
Visibility: 6 or more miles (10+ km)
Ceiling: at least 12,000 feet AGL
Clouds: sky clear below 12,000 feet AGL
Weather: no significant weather observed at this time

Forecast for: EHKD (DE KOOY (NAVY) , NL)
Text: TAF EHKD 201645Z 2017/2105 04012KT CAVOK
Forecast period: 1700 UTC 20 September 2020 to 0500 UTC 21 September 2020
Forecast type: FROM: standard forecast or significant change
Winds: from the NE (40 degrees) at 14 MPH (12 knots; 6.2 m/s)
Visibility: 6 or more miles (10+ km)
Ceiling: unknown
Clouds: missing
Weather: NSW  (no significant weather)

 AIRPORT MAP

 RUNWAY INFORMATION
Runway 04 Runway length 4183 ft Runway width 98 ft
Runway elevation 3 ft Runway displaced threshold 804 ft Runway heading 34
Runway 22 Runway length 4183 ft Runway width 98 ft
Runway elevation 2 ft Runway displaced threshold 804 ft Runway heading 214

 AIRPORT FREQUENCIES
Type APP Name APP Frequency 119.1 MHZ
Type FSS Name FINAL Frequency 123.3 MHZ
Type GND Name GND Frequency 121.725 MHZ
Type TWR Name TWR Frequency 120.125 MHZ

 AIRPORT NEAR NAVIGATION AIDS
Type VOR-DME Name Den Helder Frequency 115550 KHZ